Laguna Larga, Argentina
Current Conditions -  °F | °C
As of 2:00 PM on Friday 31 Oct 2014 (Local Time) from SACO Reporting Station
Overcast Overcast  
Wind Chill: 63°   Ceiling: 3000
Heat Index: 63°   Visibility: 6mi
Dew Point: 48°   Wind: 14mph
Humidity: 59%   Direction: 180°S
Pressure: 30.03"   Gusts: NA
Location:  31.77°S, 63.8°W
Report Text: SACO 311700Z 18012KT 9999 SCT020 OVC030 17/09 Q1017
Loading
Personal Weather Stations






























Interactive Weather Map
Tropical Storm Tracking
New forecast layout! Learn more

10-Day Weather Forecast

Advertisements
Track Severe Weather on mobile